Fort Steilacoom, Washington
Current Conditions -  °F | °C
As of 9:38 PM on Wednesday 17 Dec 2014 (Local Time) from KGRF Reporting Station
Drizzle Drizzle  
Wind Chill: 43°   Ceiling: 3600
Heat Index: 43°   Visibility: 7mi
Dew Point: 43°   Wind: 1mph
Humidity: 100%   Direction: 60°ENE
Pressure: 29.91"   Gusts: NA
Location:  47.1451°N, 122.578°W
Report Text: KGRF 180538Z AUTO 06001KT 7SM DZ OVC036 06/06 A2991 RMK AO2 RAE00DZB00
Loading
Personal Weather Stations






























Interactive Weather Map New forecast layout! Learn more

10-Day Weather Forecast

Advertisements
Track Severe Weather on mobile